Un Karadeniz — TCTD3 — position and weather

sailwx.info

Track history (hours):
 
Tides and Currents Weather Stations Pressure Air Temp Water Temp Dewpoint Dewpoint Depression Visibility Wind Speed Wind Dir Waves Ship Positions

Un Karadeniz

Last reported at 2017-Aug-18 04:05 UTC. Time now 2017-Aug-18 10:43 UTC.
Position N 39°24' E 019°27'.

Length 193 m; draft 6.3 m.

Type: Ship (hazmat cat A). MMSI: 271002571.

Date/timePositionNaut miles runAvg speedWind from/ knotsBaromVisibWave heightAir tempDewpointWater temp
2017-Aug-18 04:05N 39°24' E 019°27'121.0
2017-Aug-18 04:00N 39°23' E 019°28'1121.1
2017-Aug-18 03:30N 39°13' E 019°35'1121.1
2017-Aug-18 03:01N 39°04' E 019°41'1121.5
2017-Aug-18 02:30N 38°54' E 019°47'1121.6
2017-Aug-18 02:00N 38°45' E 019°53'1121.2
2017-Aug-18 01:30N 38°35' E 019°59'1120.7
2017-Aug-18 00:57N 38°25' E 020°06'920.6
2017-Aug-18 00:30N 38°17' E 020°12'1020.5
2017-Aug-18 00:01N 38°08' E 020°18'1020.0
2017-Aug-17 23:30N 37°59' E 020°25'1019.9
2017-Aug-17 23:00N 37°51' E 020°32'1020.1
2017-Aug-17 22:30N 37°43' E 020°38'17314.4
2017-Aug-17 10:31N 37°43' E 024°17'021.6
2017-Aug-17 10:30N 37°43' E 024°18'  
2017-Aug-14 20:46N 39°07' E 025°24'619.4
2017-Aug-14 20:27N 39°01' E 025°21'2019.2
2017-Aug-14 19:26N 38°44' E 025°09'59614.4
2017-Aug-13 01:56N 44°08' E 014°02'819.5
2017-Aug-13 01:30N 44°15' E 013°55'1019.7
2017-Aug-13 01:00N 44°23' E 013°48'1019.9
2017-Aug-13 00:30N 44°31' E 013°40'1020.0
2017-Aug-13 00:00N 44°40' E 013°33'1019.8
2017-Aug-12 23:31N 44°48' E 013°25'1019.6
2017-Aug-12 23:00N 44°56' E 013°18'1019.4
2017-Aug-12 22:30N 45°05' E 013°11'1019.2
2017-Aug-12 22:00N 45°13' E 013°05'918.5
2017-Aug-12 21:30N 45°23' E 013°05'1019.3
2017-Aug-12 21:00N 45°29' E 013°14'1019.0
2017-Aug-12 20:30N 45°35' E 013°25'919.1
2017-Aug-12 20:00N 45°39' E 013°38'5 7.8
2017-Aug-12 19:23N 45°39' E 013°45'0 0.0
2017-Aug-12 18:52N 45°39' E 013°45'0 0.0
2017-Aug-12 18:25N 45°39' E 013°45'0 0.0
2017-Aug-12 17:55N 45°39' E 013°45'0 0.0
2017-Aug-12 17:25N 45°39' E 013°45'0 0.0
2017-Aug-12 17:00N 45°39' E 013°45'0 0.0
2017-Aug-12 16:31N 45°39' E 013°45'0 0.0
2017-Aug-12 16:01N 45°39' E 013°45'0 0.0
2017-Aug-12 15:30N 45°39' E 013°45'0 0.0
2017-Aug-12 15:00N 45°39' E 013°45'0 0.0
2017-Aug-12 14:31N 45°39' E 013°45'0 0.0
2017-Aug-12 14:00N 45°39' E 013°45'0 0.0
2017-Aug-12 13:30N 45°39' E 013°45'0 0.0
2017-Aug-12 13:01N 45°39' E 013°45'0 0.0
2017-Aug-12 12:31N 45°39' E 013°45'0 0.0
2017-Aug-12 12:00N 45°39' E 013°45'0 0.0
2017-Aug-12 11:31N 45°39' E 013°45'0 0.0
2017-Aug-12 11:00N 45°39' E 013°45'0 0.0
2017-Aug-12 10:30N 45°39' E 013°45'0 0.0
2017-Aug-12 10:00N 45°39' E 013°45'0 0.0
2017-Aug-12 09:31N 45°39' E 013°45'0 0.0
2017-Aug-12 09:00N 45°39' E 013°45'2 5.0
2017-Aug-12 08:30N 45°39' E 013°41'1019.1
2017-Aug-12 08:00N 45°34' E 013°30'1020.3
2017-Aug-12 07:30N 45°27' E 013°20'1020.4
2017-Aug-12 07:00N 45°17' E 013°14'1020.5
2017-Aug-12 06:30N 45°07' E 013°18'1020.8
2017-Aug-12 06:00N 44°58' E 013°24'1020.5
2017-Aug-12 05:30N 44°49' E 013°31'1020.3
2017-Aug-12 05:00N 44°40' E 013°38'1019.8
2017-Aug-12 04:30N 44°32' E 013°46'1019.6
2017-Aug-12 04:00N 44°23' E 013°53'1019.7
2017-Aug-12 03:30N 44°15' E 014°01'1219.6
2017-Aug-12 02:54N 44°05' E 014°11'30916.9
2017-Aug-11 08:38N 40°10' E 018°40'712.9
2017-Aug-11 08:04N 40°04' E 018°45'113.1
2017-Aug-11 08:00N 40°03' E 018°46'713.1
2017-Aug-11 07:30N 39°58' E 018°50'613.2
2017-Aug-11 07:01N 39°52' E 018°55'713.3
2017-Aug-11 06:30N 39°47' E 018°60'713.3
2017-Aug-11 06:00N 39°41' E 019°04'713.8
2017-Aug-11 05:30N 39°35' E 019°09'1020.7
2017-Aug-11 05:01N 39°26' E 019°15'1020.7
2017-Aug-11 04:30N 39°17' E 019°23'1020.7
2017-Aug-11 04:00N 39°09' E 019°30'1021.0
2017-Aug-11 03:30N 38°60' E 019°37'1020.9
2017-Aug-11 03:00N 38°51' E 019°44'1020.8
2017-Aug-11 02:30N 38°42' E 019°51'1020.8
2017-Aug-11 02:00N 38°33' E 019°58'1020.8
2017-Aug-11 01:30N 38°24' E 020°05'1020.8
2017-Aug-11 01:01N 38°15' E 020°12'1020.7
2017-Aug-11 00:30N 38°07' E 020°19'1020.6
2017-Aug-11 00:01N 37°58' E 020°26'1020.6
2017-Aug-10 23:31N 37°49' E 020°33'1920.5
2017-Aug-10 22:34N 37°34' E 020°47'120.8
2017-Aug-10 22:30N 37°33' E 020°49'14315.2
2017-Aug-10 13:05N 37°07' E 023°46'2921.5
2017-Aug-10 11:45N 37°31' E 024°06'621.0
2017-Aug-10 11:28N 37°36' E 024°10'307 8.8
2017-Aug-09 00:34N 40°51' E 029°16'0 0.0
2017-Aug-09 00:28N 40°51' E 029°16'0 0.0
2017-Aug-08 23:57N 40°51' E 029°16'0 0.0
2017-Aug-08 23:27N 40°51' E 029°16'0 0.0
2017-Aug-08 22:57N 40°51' E 029°16'0 0.0
2017-Aug-08 22:27N 40°51' E 029°16'0 0.0
2017-Aug-08 21:57N 40°51' E 029°16'0 0.0
2017-Aug-08 21:26N 40°51' E 029°16'0 0.0
2017-Aug-08 20:56N 40°51' E 029°16'0 0.0
2017-Aug-08 20:26N 40°51' E 029°16'0 0.0
2017-Aug-08 20:00N 40°51' E 029°16'0 0.0
2017-Aug-08 19:18N 40°51' E 029°16'0 0.0
2017-Aug-08 19:00N 40°51' E 029°16'0 0.0
2017-Aug-08 18:29N 40°51' E 029°16'0 0.0
2017-Aug-08 17:59N 40°51' E 029°16'0 0.0
2017-Aug-08 17:29N 40°51' E 029°16'0 0.0
2017-Aug-08 16:59N 40°51' E 029°16'0 0.0
2017-Aug-08 16:22N 40°51' E 029°16'0 0.0
2017-Aug-08 15:58N 40°51' E 029°16'1 3.2
2017-Aug-08 15:30N 40°51' E 029°14'917.6
2017-Aug-08 15:00N 40°49' E 029°03'918.9
2017-Aug-08 14:30N 40°51' E 028°51'  
Track history (hours):
 
Tides and Currents Weather Stations Pressure Air Temp Water Temp Dewpoint Dewpoint Depression Visibility Wind Speed Wind Dir Waves Ship Positions

Un Karadeniz

Last reported at 2017-Aug-18 04:05 UTC. Time now 2017-Aug-18 10:43 UTC.
Position N 39°24' E 019°27'.

Length 193 m; draft 6.3 m.

Type: Ship (hazmat cat A). MMSI: 271002571.

Date/timePositionNaut miles runAvg speedWind from/ knotsBaromVisibWave heightAir tempDewpointWater temp
2017-Aug-18 04:05N 39°24' E 019°27'121.0
2017-Aug-18 04:00N 39°23' E 019°28'1121.1
2017-Aug-18 03:30N 39°13' E 019°35'1121.1
2017-Aug-18 03:01N 39°04' E 019°41'1121.5
2017-Aug-18 02:30N 38°54' E 019°47'1121.6
2017-Aug-18 02:00N 38°45' E 019°53'1121.2
2017-Aug-18 01:30N 38°35' E 019°59'1120.7
2017-Aug-18 00:57N 38°25' E 020°06'920.6
2017-Aug-18 00:30N 38°17' E 020°12'1020.5
2017-Aug-18 00:01N 38°08' E 020°18'1020.0
2017-Aug-17 23:30N 37°59' E 020°25'1019.9
2017-Aug-17 23:00N 37°51' E 020°32'1020.1
2017-Aug-17 22:30N 37°43' E 020°38'17314.4
2017-Aug-17 10:31N 37°43' E 024°17'021.6
2017-Aug-17 10:30N 37°43' E 024°18'  
2017-Aug-14 20:46N 39°07' E 025°24'619.4
2017-Aug-14 20:27N 39°01' E 025°21'2019.2
2017-Aug-14 19:26N 38°44' E 025°09'59614.4
2017-Aug-13 01:56N 44°08' E 014°02'819.5
2017-Aug-13 01:30N 44°15' E 013°55'1019.7
2017-Aug-13 01:00N 44°23' E 013°48'1019.9
2017-Aug-13 00:30N 44°31' E 013°40'1020.0
2017-Aug-13 00:00N 44°40' E 013°33'1019.8
2017-Aug-12 23:31N 44°48' E 013°25'1019.6
2017-Aug-12 23:00N 44°56' E 013°18'1019.4
2017-Aug-12 22:30N 45°05' E 013°11'1019.2
2017-Aug-12 22:00N 45°13' E 013°05'918.5
2017-Aug-12 21:30N 45°23' E 013°05'1019.3
2017-Aug-12 21:00N 45°29' E 013°14'1019.0
2017-Aug-12 20:30N 45°35' E 013°25'919.1
2017-Aug-12 20:00N 45°39' E 013°38'5 7.8
2017-Aug-12 19:23N 45°39' E 013°45'0 0.0
2017-Aug-12 18:52N 45°39' E 013°45'0 0.0
2017-Aug-12 18:25N 45°39' E 013°45'0 0.0
2017-Aug-12 17:55N 45°39' E 013°45'0 0.0
2017-Aug-12 17:25N 45°39' E 013°45'0 0.0
2017-Aug-12 17:00N 45°39' E 013°45'0 0.0
2017-Aug-12 16:31N 45°39' E 013°45'0 0.0
2017-Aug-12 16:01N 45°39' E 013°45'0 0.0
2017-Aug-12 15:30N 45°39' E 013°45'0 0.0
2017-Aug-12 15:00N 45°39' E 013°45'0 0.0
2017-Aug-12 14:31N 45°39' E 013°45'0 0.0
2017-Aug-12 14:00N 45°39' E 013°45'0 0.0
2017-Aug-12 13:30N 45°39' E 013°45'0 0.0
2017-Aug-12 13:01N 45°39' E 013°45'0 0.0
2017-Aug-12 12:31N 45°39' E 013°45'0 0.0
2017-Aug-12 12:00N 45°39' E 013°45'0 0.0
2017-Aug-12 11:31N 45°39' E 013°45'0 0.0
2017-Aug-12 11:00N 45°39' E 013°45'0 0.0
2017-Aug-12 10:30N 45°39' E 013°45'0 0.0
2017-Aug-12 10:00N 45°39' E 013°45'0 0.0
2017-Aug-12 09:31N 45°39' E 013°45'0 0.0
2017-Aug-12 09:00N 45°39' E 013°45'2 5.0
2017-Aug-12 08:30N 45°39' E 013°41'1019.1
2017-Aug-12 08:00N 45°34' E 013°30'1020.3
2017-Aug-12 07:30N 45°27' E 013°20'1020.4
2017-Aug-12 07:00N 45°17' E 013°14'1020.5
2017-Aug-12 06:30N 45°07' E 013°18'1020.8
2017-Aug-12 06:00N 44°58' E 013°24'1020.5
2017-Aug-12 05:30N 44°49' E 013°31'1020.3
2017-Aug-12 05:00N 44°40' E 013°38'1019.8
2017-Aug-12 04:30N 44°32' E 013°46'1019.6
2017-Aug-12 04:00N 44°23' E 013°53'1019.7
2017-Aug-12 03:30N 44°15' E 014°01'1219.6
2017-Aug-12 02:54N 44°05' E 014°11'30916.9
2017-Aug-11 08:38N 40°10' E 018°40'712.9
2017-Aug-11 08:04N 40°04' E 018°45'113.1
2017-Aug-11 08:00N 40°03' E 018°46'713.1
2017-Aug-11 07:30N 39°58' E 018°50'613.2
2017-Aug-11 07:01N 39°52' E 018°55'713.3
2017-Aug-11 06:30N 39°47' E 018°60'713.3
2017-Aug-11 06:00N 39°41' E 019°04'713.8
2017-Aug-11 05:30N 39°35' E 019°09'1020.7
2017-Aug-11 05:01N 39°26' E 019°15'1020.7
2017-Aug-11 04:30N 39°17' E 019°23'1020.7
2017-Aug-11 04:00N 39°09' E 019°30'1021.0
2017-Aug-11 03:30N 38°60' E 019°37'1020.9
2017-Aug-11 03:00N 38°51' E 019°44'1020.8
2017-Aug-11 02:30N 38°42' E 019°51'1020.8
2017-Aug-11 02:00N 38°33' E 019°58'1020.8
2017-Aug-11 01:30N 38°24' E 020°05'1020.8
2017-Aug-11 01:01N 38°15' E 020°12'1020.7
2017-Aug-11 00:30N 38°07' E 020°19'1020.6
2017-Aug-11 00:01N 37°58' E 020°26'1020.6
2017-Aug-10 23:31N 37°49' E 020°33'1920.5
2017-Aug-10 22:34N 37°34' E 020°47'120.8
2017-Aug-10 22:30N 37°33' E 020°49'14315.2
2017-Aug-10 13:05N 37°07' E 023°46'2921.5
2017-Aug-10 11:45N 37°31' E 024°06'621.0
2017-Aug-10 11:28N 37°36' E 024°10'307 8.8
2017-Aug-09 00:34N 40°51' E 029°16'0 0.0
2017-Aug-09 00:28N 40°51' E 029°16'0 0.0
2017-Aug-08 23:57N 40°51' E 029°16'0 0.0
2017-Aug-08 23:27N 40°51' E 029°16'0 0.0
2017-Aug-08 22:57N 40°51' E 029°16'0 0.0
2017-Aug-08 22:27N 40°51' E 029°16'0 0.0
2017-Aug-08 21:57N 40°51' E 029°16'0 0.0
2017-Aug-08 21:26N 40°51' E 029°16'0 0.0
2017-Aug-08 20:56N 40°51' E 029°16'0 0.0
2017-Aug-08 20:26N 40°51' E 029°16'0 0.0
2017-Aug-08 20:00N 40°51' E 029°16'0 0.0
2017-Aug-08 19:18N 40°51' E 029°16'0 0.0
2017-Aug-08 19:00N 40°51' E 029°16'0 0.0
2017-Aug-08 18:29N 40°51' E 029°16'0 0.0
2017-Aug-08 17:59N 40°51' E 029°16'0 0.0
2017-Aug-08 17:29N 40°51' E 029°16'0 0.0
2017-Aug-08 16:59N 40°51' E 029°16'0 0.0
2017-Aug-08 16:22N 40°51' E 029°16'0 0.0
2017-Aug-08 15:58N 40°51' E 029°16'1 3.2
2017-Aug-08 15:30N 40°51' E 029°14'917.6
2017-Aug-08 15:00N 40°49' E 029°03'918.9
2017-Aug-08 14:30N 40°51' E 028°51'  

Dump ship's entire track history